Time;durP1;ratioP1;P1;durP2;ratioP2;P2;SDS_P1;SDS_P2;PMS_P1;PMS_P2;Temp;Humidity;BMP_temperature;BMP_pressure;BME280_temperature;BME280_humidity;BME280_pressure;Samples;Min_cycle;Max_cycle;Signal;HPM_P1;HPM_P2
2022/07/15 00:02:26;;;;;;;4.60;2.00;;;13.60;99.90;;;;;;5032104;28;20495;-60
2022/07/15 00:04:55;;;;;;;2.93;2.33;;;13.60;99.90;;;;;;5032797;28;20448;-61
2022/07/15 00:07:22;;;;;;;7.43;2.20;;;13.50;99.90;;;;;;5033264;28;20488;-61
2022/07/15 00:12:34;;;;;;;5.30;2.50;;;13.50;99.90;;;;;;5032539;28;20990;-61
2022/07/15 00:15:02;;;;;;;3.43;2.57;;;13.40;99.90;;;;;;5032903;28;20911;-61
2022/07/15 00:17:29;;;;;;;4.10;2.40;;;13.40;99.90;;;;;;5032761;28;20783;-61
2022/07/15 00:19:58;;;;;;;3.93;2.30;;;13.40;99.90;;;;;;5032939;28;21046;-62
2022/07/15 00:22:25;;;;;;;4.90;2.27;;;13.40;99.90;;;;;;5032643;28;20540;-61
2022/07/15 00:24:52;;;;;;;4.97;2.60;;;13.30;99.90;;;;;;5033327;28;20473;-61
2022/07/15 00:27:20;;;;;;;3.10;2.43;;;13.40;99.90;;;;;;5037146;28;20491;-60
2022/07/15 00:29:47;;;;;;;5.17;2.80;;;13.40;99.90;;;;;;5037612;28;20491;-61
2022/07/15 00:32:14;;;;;;;3.40;2.30;;;13.40;99.90;;;;;;5037272;28;20445;-60
2022/07/15 00:34:41;;;;;;;4.70;2.03;;;13.40;99.90;;;;;;5036611;28;20554;-61
2022/07/15 00:37:11;;;;;;;5.57;2.63;;;13.40;99.90;;;;;;5036916;28;20480;-61
2022/07/15 00:39:38;;;;;;;3.60;2.23;;;13.40;99.90;;;;;;5036498;28;20508;-62
2022/07/15 00:42:05;;;;;;;9.40;2.30;;;13.40;99.90;;;;;;5036270;28;20452;-61
2022/07/15 00:44:33;;;;;;;3.50;2.07;;;13.40;99.90;;;;;;5036548;28;20851;-60
2022/07/15 00:47:00;;;;;;;9.40;2.33;;;13.40;99.90;;;;;;5036567;28;20444;-61
2022/07/15 00:49:28;;;;;;;2.93;1.73;;;13.40;99.90;;;;;;5036107;28;20451;-62
2022/07/15 00:51:57;;;;;;;5.60;2.07;;;13.40;99.90;;;;;;5036328;28;20449;-61
2022/07/15 00:54:27;;;;;;;5.77;2.47;;;13.40;99.90;;;;;;5036271;28;20543;-61
2022/07/15 00:56:56;;;;;;;5.47;2.10;;;13.50;99.90;;;;;;5036118;28;20532;-60
2022/07/15 00:59:25;;;;;;;9.40;2.03;;;13.50;99.90;;;;;;5036170;28;20941;-61
2022/07/15 01:01:54;;;;;;;5.40;1.90;;;13.50;99.90;;;;;;5035386;28;20449;-61
2022/07/15 01:04:23;;;;;;;4.03;1.97;;;13.60;99.90;;;;;;5035854;28;20456;-61
2022/07/15 01:06:50;;;;;;;5.40;2.73;;;13.60;99.90;;;;;;5036287;28;20455;-61
2022/07/15 01:09:19;;;;;;;4.20;2.40;;;13.60;99.90;;;;;;5035666;28;20450;-61
2022/07/15 01:11:48;;;;;;;2.57;1.77;;;13.60;99.90;;;;;;5036329;28;20472;-60
2022/07/15 01:14:15;;;;;;;2.80;1.60;;;13.70;99.90;;;;;;5035997;28;20499;-61
2022/07/15 01:16:43;;;;;;;3.60;1.93;;;13.70;99.90;;;;;;5036173;28;20498;-62
2022/07/15 01:19:10;;;;;;;4.40;1.80;;;13.70;99.90;;;;;;5036112;28;20441;-61
2022/07/15 01:21:39;;;;;;;4.90;1.63;;;13.70;99.90;;;;;;5036080;28;20488;-61
2022/07/15 01:24:07;;;;;;;9.50;1.93;;;13.60;99.90;;;;;;5035855;28;20450;-62
2022/07/15 01:26:34;;;;;;;4.83;2.20;;;13.60;99.90;;;;;;5035838;28;20467;-61
2022/07/15 01:29:01;;;;;;;4.57;2.33;;;13.60;99.90;;;;;;5035882;28;20495;-61
2022/07/15 01:31:29;;;;;;;4.40;1.73;;;13.50;99.90;;;;;;5035614;28;20477;-61
2022/07/15 01:33:56;;;;;;;4.37;1.80;;;13.50;99.90;;;;;;5035643;28;20965;-62
2022/07/15 01:36:23;;;;;;;5.30;1.83;;;13.40;99.90;;;;;;5034650;28;20477;-61
2022/07/15 01:38:52;;;;;;;10.53;2.33;;;13.40;99.90;;;;;;5016136;28;20504;-61
2022/07/15 01:41:22;;;;;;;5.17;2.33;;;13.40;99.90;;;;;;5029727;28;20547;-61
2022/07/15 01:43:49;;;;;;;4.70;2.63;;;13.30;99.90;;;;;;5035559;28;20479;-61
2022/07/15 01:46:16;;;;;;;5.73;2.43;;;13.30;99.90;;;;;;5035248;28;20546;-62
2022/07/15 01:51:29;;;;;;;5.10;1.90;;;13.30;99.90;;;;;;5035402;28;20460;-61
2022/07/15 01:53:58;;;;;;;6.10;2.23;;;13.30;99.90;;;;;;5035119;28;20461;-61
2022/07/15 01:56:25;;;;;;;2.60;1.87;;;13.20;99.90;;;;;;5035293;28;20520;-61
2022/07/15 01:58:52;;;;;;;6.10;2.07;;;13.20;99.90;;;;;;5034989;28;20873;-61
2022/07/15 02:01:19;;;;;;;4.60;1.60;;;13.20;99.90;;;;;;5035148;28;20864;-61
2022/07/15 02:03:47;;;;;;;7.03;2.00;;;13.20;99.90;;;;;;5035184;28;20797;-61
2022/07/15 02:06:14;;;;;;;3.47;1.70;;;13.20;99.90;;;;;;5034875;28;20437;-61
2022/07/15 02:08:41;;;;;;;3.47;1.87;;;13.20;99.90;;;;;;5034999;28;20475;-61
2022/07/15 02:11:11;;;;;;;4.43;1.30;;;13.20;99.90;;;;;;5035077;28;20509;-62
2022/07/15 02:13:38;;;;;;;4.20;1.60;;;13.20;99.90;;;;;;5034764;28;20507;-60
2022/07/15 02:16:06;;;;;;;8.90;2.13;;;13.30;99.90;;;;;;5034663;28;20940;-61
2022/07/15 02:18:33;;;;;;;5.67;1.83;;;13.30;99.90;;;;;;5034970;28;20503;-61
2022/07/15 02:21:02;;;;;;;2.43;1.70;;;13.30;99.90;;;;;;5034868;28;21044;-61
2022/07/15 02:23:29;;;;;;;5.83;1.93;;;13.30;99.90;;;;;;5034242;28;20503;-61
2022/07/15 02:25:56;;;;;;;5.40;2.30;;;13.30;99.90;;;;;;5034765;28;20441;-61
2022/07/15 02:28:25;;;;;;;3.77;1.80;;;13.20;99.90;;;;;;5034315;28;20445;-61
2022/07/15 02:30:52;;;;;;;5.60;2.10;;;13.20;99.90;;;;;;5034438;28;20477;-61
2022/07/15 02:33:20;;;;;;;2.87;1.60;;;13.10;99.90;;;;;;5034623;28;20477;-61
2022/07/15 02:35:47;;;;;;;4.67;2.13;;;13.00;99.90;;;;;;5033715;28;20504;-61
2022/07/15 02:38:15;;;;;;;3.90;2.17;;;13.00;99.90;;;;;;5034358;28;20817;-61
2022/07/15 02:40:42;;;;;;;5.60;1.90;;;12.90;99.90;;;;;;5034144;28;20473;-61
2022/07/15 02:43:10;;;;;;;4.60;1.90;;;12.90;99.90;;;;;;5034087;28;20483;-61
2022/07/15 02:45:39;;;;;;;10.00;2.40;;;12.90;99.90;;;;;;5033745;28;20961;-62
2022/07/15 02:48:07;;;;;;;7.67;2.40;;;12.80;99.90;;;;;;5018741;28;20500;-61
2022/07/15 02:50:35;;;;;;;5.70;2.57;;;12.80;99.90;;;;;;5033898;28;20535;-62
2022/07/15 02:53:03;;;;;;;3.87;2.20;;;12.80;99.90;;;;;;5034241;28;20449;-61
2022/07/15 02:55:31;;;;;;;3.77;2.03;;;12.80;99.90;;;;;;5034331;28;20481;-61
2022/07/15 02:57:58;;;;;;;3.90;1.70;;;12.70;99.90;;;;;;5033783;28;20872;-62
2022/07/15 03:00:25;;;;;;;5.13;1.80;;;12.70;99.90;;;;;;5033660;28;20845;-61
2022/07/15 03:02:54;;;;;;;5.20;2.23;;;12.70;99.90;;;;;;5034027;28;20488;-61
2022/07/15 03:05:21;;;;;;;6.20;2.40;;;12.60;99.90;;;;;;5033863;28;20445;-62
2022/07/15 03:07:49;;;;;;;5.90;2.20;;;12.60;99.90;;;;;;5034448;28;20449;-61
2022/07/15 03:10:16;;;;;;;6.57;2.70;;;12.60;99.90;;;;;;5034913;28;20492;-61
2022/07/15 03:12:44;;;;;;;7.03;3.00;;;12.50;99.90;;;;;;5034665;28;20453;-61
2022/07/15 03:15:11;;;;;;;3.70;2.30;;;12.50;99.90;;;;;;5033356;28;20891;-61
2022/07/15 03:17:39;;;;;;;4.60;2.30;;;12.40;99.90;;;;;;5033388;28;20815;-61
2022/07/15 03:20:10;;;;;;;7.30;2.10;;;12.40;99.90;;;;;;5033044;28;20531;-61
2022/07/15 03:22:37;;;;;;;5.70;2.70;;;12.40;99.90;;;;;;5033758;28;20886;-62
2022/07/15 03:25:05;;;;;;;6.63;2.40;;;12.40;99.90;;;;;;5033304;28;20449;-61
2022/07/15 03:27:33;;;;;;;8.17;2.40;;;12.30;99.90;;;;;;5032798;28;20511;-63
2022/07/15 03:30:01;;;;;;;4.57;2.40;;;12.30;99.90;;;;;;5033013;28;20489;-60
2022/07/15 03:32:28;;;;;;;3.07;2.20;;;12.30;99.90;;;;;;5032893;28;20449;-60
2022/07/15 03:34:57;;;;;;;3.47;2.00;;;12.30;99.90;;;;;;5032965;28;20446;-61
2022/07/15 03:37:26;;;;;;;6.27;2.20;;;12.30;99.90;;;;;;5033095;28;20452;-61
2022/07/15 03:39:53;;;;;;;5.87;2.40;;;12.30;99.90;;;;;;5033120;28;20526;-61
2022/07/15 03:42:21;;;;;;;6.57;3.03;;;12.30;99.90;;;;;;5033044;28;20921;-62
2022/07/15 03:44:48;;;;;;;5.97;2.17;;;12.30;99.90;;;;;;5033126;28;20560;-61
2022/07/15 03:47:15;;;;;;;5.03;2.60;;;12.30;99.90;;;;;;5032999;28;20441;-62
2022/07/15 03:49:43;;;;;;;8.53;2.87;;;12.40;99.90;;;;;;5033212;28;20522;-61
2022/07/15 03:52:10;;;;;;;6.80;2.40;;;12.40;99.90;;;;;;5033522;28;20862;-61
2022/07/15 03:54:39;;;;;;;5.63;2.13;;;12.50;99.90;;;;;;5033876;28;20507;-61
2022/07/15 03:57:06;;;;;;;6.30;2.30;;;12.60;99.90;;;;;;5033096;28;20481;-61
2022/07/15 03:59:33;;;;;;;6.43;2.43;;;12.70;99.90;;;;;;5032413;28;21014;-60
2022/07/15 04:02:01;;;;;;;6.77;2.03;;;12.70;99.90;;;;;;5033783;28;20480;-62
2022/07/15 04:04:28;;;;;;;4.10;2.17;;;12.80;99.90;;;;;;5033867;28;20484;-61
2022/07/15 04:10:00;;;;;;;6.67;2.80;;;12.90;99.90;;;;;;5113129;27;20616;-62
2022/07/15 04:12:27;;;;;;;8.23;3.10;;;13.00;99.90;;;;;;5112495;28;20495;-61
2022/07/15 04:14:54;;;;;;;6.33;2.50;;;13.00;99.90;;;;;;5112976;28;20956;-61
2022/07/15 04:17:22;;;;;;;4.63;2.50;;;13.10;99.90;;;;;;5106445;28;20952;-62
2022/07/15 04:19:49;;;;;;;8.27;3.00;;;13.10;99.90;;;;;;5111004;28;20466;-62
2022/07/15 04:22:16;;;;;;;6.00;2.37;;;13.20;99.90;;;;;;5100023;28;20470;-61
2022/07/15 04:24:44;;;;;;;3.97;2.60;;;13.20;99.90;;;;;;5090821;28;20467;-61
2022/07/15 04:27:12;;;;;;;5.67;2.23;;;13.20;99.90;;;;;;5100091;28;20442;-61
2022/07/15 04:29:40;;;;;;;5.67;2.20;;;13.30;99.90;;;;;;5096643;28;20482;-61
2022/07/15 04:32:07;;;;;;;8.93;3.03;;;13.20;99.90;;;;;;5093100;28;20451;-61
2022/07/15 04:34:34;;;;;;;8.30;2.60;;;13.30;99.90;;;;;;5090988;28;20491;-61
2022/07/15 04:37:02;;;;;;;5.40;2.50;;;13.30;99.90;;;;;;5091178;28;20447;-61
2022/07/15 04:39:29;;;;;;;5.17;2.60;;;13.40;99.90;;;;;;5101678;28;20438;-63
2022/07/15 04:41:56;;;;;;;7.23;2.37;;;13.40;99.90;;;;;;5103263;28;20496;-62
2022/07/15 04:44:25;;;;;;;6.20;1.83;;;13.50;99.90;;;;;;5097786;28;20445;-63
2022/07/15 04:46:52;;;;;;;6.30;2.37;;;13.50;99.90;;;;;;5111239;28;20437;-61
2022/07/15 04:52:04;;;;;;;5.03;2.57;;;13.70;99.90;;;;;;5110075;28;20517;-61
2022/07/15 04:54:32;;;;;;;5.83;2.50;;;13.80;99.90;;;;;;5102493;28;20471;-61
2022/07/15 04:56:59;;;;;;;4.43;2.47;;;13.80;99.90;;;;;;5090160;28;20926;-61
2022/07/15 04:59:28;;;;;;;3.10;2.23;;;13.80;99.90;;;;;;5089788;28;20442;-62
2022/07/15 05:01:55;;;;;;;4.87;2.50;;;13.90;99.90;;;;;;5090278;28;20447;-63
2022/07/15 05:04:22;;;;;;;3.63;1.90;;;13.90;99.90;;;;;;5090049;28;20503;-62
2022/07/15 05:06:49;;;;;;;7.10;2.30;;;13.90;99.90;;;;;;5092811;28;20442;-60
2022/07/15 05:09:17;;;;;;;9.43;3.57;;;14.00;99.90;;;;;;5089744;28;20482;-60
2022/07/15 05:11:45;;;;;;;23.80;4.57;;;14.00;99.90;;;;;;5094404;28;20438;-60
2022/07/15 05:14:12;;;;;;;13.50;4.83;;;14.10;99.90;;;;;;5110243;28;20480;-60
2022/07/15 05:16:41;;;;;;;10.93;4.60;;;14.10;99.70;;;;;;5110254;28;20921;-60
2022/07/15 05:19:09;;;;;;;6.57;3.70;;;14.10;99.60;;;;;;5109135;28;20544;-61
2022/07/15 05:21:36;;;;;;;9.40;4.13;;;14.20;99.50;;;;;;5095556;28;20573;-61
2022/07/15 05:24:04;;;;;;;8.97;3.77;;;14.30;99.30;;;;;;5090074;28;20455;-60
2022/07/15 05:26:32;;;;;;;7.40;3.63;;;14.30;99.10;;;;;;5076094;28;20810;-60
2022/07/15 05:28:59;;;;;;;14.37;4.07;;;14.30;99.00;;;;;;5075573;28;20474;-60
2022/07/15 05:31:27;;;;;;;10.60;3.53;;;14.30;99.10;;;;;;5075874;28;20466;-61
2022/07/15 05:33:56;;;;;;;9.20;3.73;;;14.30;99.10;;;;;;5075905;28;20952;-61
2022/07/15 05:36:23;;;;;;;6.10;3.13;;;14.40;99.10;;;;;;5075674;28;20550;-61
2022/07/15 05:38:52;;;;;;;7.27;2.97;;;14.40;99.10;;;;;;5077186;28;20447;-60
2022/07/15 05:41:20;;;;;;;6.23;3.07;;;14.50;99.10;;;;;;5076181;28;20846;-61
2022/07/15 05:43:48;;;;;;;7.07;2.67;;;14.50;99.00;;;;;;5076485;28;20451;-60
2022/07/15 05:46:15;;;;;;;7.17;3.43;;;14.50;98.90;;;;;;5076469;28;20501;-60
2022/07/15 05:48:42;;;;;;;5.93;2.70;;;14.60;98.80;;;;;;5075841;28;20479;-61
2022/07/15 05:51:11;;;;;;;13.17;3.33;;;14.70;98.90;;;;;;5075770;28;20467;-61
2022/07/15 05:53:39;;;;;;;4.77;2.40;;;14.80;98.70;;;;;;5076322;28;20451;-61
2022/07/15 05:56:07;;;;;;;6.70;2.30;;;14.90;98.80;;;;;;5076112;28;20444;-61
2022/07/15 05:58:35;;;;;;;3.60;2.53;;;15.10;98.20;;;;;;5075636;28;20969;-61
2022/07/15 06:01:02;;;;;;;3.80;2.20;;;15.20;97.90;;;;;;5085926;28;20516;-60
2022/07/15 06:03:30;;;;;;;5.33;2.43;;;15.30;97.60;;;;;;5095970;28;20444;-61
2022/07/15 06:05:57;;;;;;;4.70;2.50;;;15.50;97.20;;;;;;5096088;28;20834;-62
2022/07/15 06:08:26;;;;;;;6.77;2.10;;;15.50;96.70;;;;;;5099064;28;20458;-60
2022/07/15 06:10:54;;;;;;;5.33;2.23;;;15.50;96.60;;;;;;5098568;28;20987;-60
2022/07/15 06:13:22;;;;;;;6.00;2.23;;;15.50;96.60;;;;;;5092860;28;20939;-62
2022/07/15 06:15:49;;;;;;;4.80;2.63;;;15.50;96.30;;;;;;5090858;28;20444;-60
2022/07/15 06:18:17;;;;;;;4.70;1.80;;;15.60;96.10;;;;;;5076326;28;20471;-60
2022/07/15 06:20:44;;;;;;;4.93;2.87;;;15.70;95.80;;;;;;5079223;28;20871;-62
2022/07/15 06:23:12;;;;;;;5.93;3.60;;;15.80;95.50;;;;;;5082444;28;20439;-61
2022/07/15 06:25:42;;;;;;;6.87;1.83;;;15.90;95.20;;;;;;5083062;28;20443;-62
2022/07/15 06:28:09;;;;;;;7.97;2.47;;;16.10;95.00;;;;;;5083856;28;20482;-62
2022/07/15 06:30:36;;;;;;;4.67;2.30;;;16.40;94.50;;;;;;5085004;28;20478;-63
2022/07/15 06:33:04;;;;;;;5.43;1.93;;;16.60;93.60;;;;;;5082961;28;20442;-61
2022/07/15 06:35:31;;;;;;;5.03;2.10;;;16.70;93.00;;;;;;5079746;28;20477;-62
2022/07/15 06:37:59;;;;;;;7.03;1.53;;;16.80;92.30;;;;;;5077247;28;20502;-62
2022/07/15 06:40:26;;;;;;;4.17;1.67;;;16.80;91.60;;;;;;5075952;28;20758;-61
2022/07/15 06:42:55;;;;;;;3.73;1.97;;;16.80;91.50;;;;;;5086985;28;20504;-61
2022/07/15 06:45:22;;;;;;;5.43;1.37;;;16.90;91.20;;;;;;5094146;28;20447;-61
2022/07/15 06:47:49;;;;;;;3.90;1.53;;;16.90;91.10;;;;;;5074079;28;20451;-62
2022/07/15 06:50:17;;;;;;;4.40;1.60;;;17.10;90.50;;;;;;5075327;28;20537;-61
2022/07/15 06:52:44;;;;;;;3.40;1.40;;;17.20;89.10;;;;;;5079737;28;20443;-61
2022/07/15 06:55:12;;;;;;;6.30;1.50;;;17.40;88.30;;;;;;5078873;28;20504;-61
2022/07/15 06:57:40;;;;;;;3.80;1.30;;;17.60;86.90;;;;;;5078691;28;20447;-60
2022/07/15 07:00:11;;;;;;;3.90;1.50;;;17.70;84.40;;;;;;5080910;28;20463;-61
2022/07/15 07:02:39;;;;;;;4.63;1.70;;;17.60;83.00;;;;;;5079582;28;20428;-61
2022/07/15 07:05:08;;;;;;;3.67;1.90;;;17.60;81.90;;;;;;5079970;28;20996;-62
2022/07/15 07:07:35;;;;;;;3.37;1.20;;;17.60;81.30;;;;;;5074366;28;20439;-61
2022/07/15 07:10:02;;;;;;;4.10;1.23;;;17.60;81.00;;;;;;5074358;28;20523;-62
2022/07/15 07:12:30;;;;;;;3.53;1.70;;;17.60;79.90;;;;;;5074813;28;20480;-61
2022/07/15 07:14:57;;;;;;;3.13;1.90;;;17.60;79.50;;;;;;5074424;28;20473;-61
2022/07/15 07:17:25;;;;;;;2.40;1.27;;;17.50;79.70;;;;;;5077821;28;20451;-61
2022/07/15 07:19:53;;;;;;;3.60;1.33;;;17.40;80.50;;;;;;5082589;28;20517;-62
2022/07/15 07:22:20;;;;;;;3.53;1.20;;;17.40;80.60;;;;;;5075757;28;20474;-61
2022/07/15 07:24:48;;;;;;;5.40;1.50;;;17.30;79.60;;;;;;5074300;28;20451;-62
2022/07/15 07:27:15;;;;;;;4.00;1.17;;;17.30;79.90;;;;;;5073621;28;20496;-60
2022/07/15 07:29:42;;;;;;;3.67;1.40;;;17.30;79.80;;;;;;5074079;28;20533;-61
2022/07/15 07:32:10;;;;;;;6.93;1.53;;;17.30;77.90;;;;;;5073871;28;20439;-61
2022/07/15 07:34:38;;;;;;;2.90;1.30;;;17.30;77.40;;;;;;5073340;28;20806;-62
2022/07/15 07:37:06;;;;;;;4.80;1.30;;;17.40;76.80;;;;;;5073576;28;20443;-62
2022/07/15 07:39:33;;;;;;;3.07;1.10;;;17.50;75.10;;;;;;5073758;28;20493;-61
2022/07/15 07:42:00;;;;;;;2.30;1.07;;;17.60;74.30;;;;;;5073818;28;20447;-61
2022/07/15 07:44:28;;;;;;;2.97;1.07;;;17.70;73.00;;;;;;5079166;28;20780;-60
2022/07/15 07:46:55;;;;;;;3.33;1.03;;;17.80;72.60;;;;;;5080828;28;20493;-61
2022/07/15 07:49:22;;;;;;;2.13;1.17;;;17.90;71.30;;;;;;5084720;28;20556;-61
2022/07/15 07:51:51;;;;;;;2.30;1.07;;;18.10;70.00;;;;;;5083219;28;20443;-60
2022/07/15 07:54:19;;;;;;;4.43;1.17;;;18.20;68.20;;;;;;5079897;28;20450;-61
2022/07/15 07:56:46;;;;;;;5.63;1.07;;;18.40;66.30;;;;;;5076107;28;20439;-62
2022/07/15 07:59:14;;;;;;;4.43;1.33;;;18.50;65.10;;;;;;5075477;28;20448;-61
2022/07/15 08:01:41;;;;;;;4.03;1.00;;;18.50;63.50;;;;;;5073585;28;20446;-61
2022/07/15 08:04:09;;;;;;;1.00;0.73;;;18.50;62.30;;;;;;5073786;28;20853;-62
2022/07/15 08:06:38;;;;;;;3.37;1.10;;;18.40;61.40;;;;;;5073625;28;20435;-62
2022/07/15 08:09:06;;;;;;;1.47;1.00;;;18.30;61.20;;;;;;5073472;28;20546;-62
2022/07/15 08:11:34;;;;;;;2.50;1.10;;;18.30;60.90;;;;;;5073610;28;20463;-61
2022/07/15 08:14:01;;;;;;;2.93;1.10;;;18.40;60.10;;;;;;5073561;28;20443;-62
2022/07/15 08:16:29;;;;;;;3.53;1.00;;;18.70;59.40;;;;;;5073662;28;20459;-61
2022/07/15 08:18:57;;;;;;;9.83;1.20;;;19.10;58.60;;;;;;5074132;28;20443;-61
2022/07/15 08:21:24;;;;;;;3.33;0.80;;;19.20;57.20;;;;;;5074302;28;20467;-60
2022/07/15 08:23:51;;;;;;;5.80;1.13;;;19.00;57.20;;;;;;5073757;28;20455;-63
2022/07/15 08:26:23;;;;;;;3.60;1.10;;;18.70;58.00;;;;;;5073690;28;20451;-62
2022/07/15 08:28:50;;;;;;;3.30;0.90;;;18.50;58.80;;;;;;5073386;28;20428;-60
2022/07/15 08:31:18;;;;;;;3.43;1.10;;;18.30;59.00;;;;;;5073375;28;20970;-61
2022/07/15 08:33:46;;;;;;;1.20;0.70;;;18.20;59.10;;;;;;5073907;28;20443;-61
2022/07/15 08:36:13;;;;;;;2.17;1.00;;;18.10;59.40;;;;;;5073458;28;20505;-62
2022/07/15 08:38:41;;;;;;;2.60;0.77;;;18.30;59.70;;;;;;5073058;28;20493;-61
2022/07/15 08:41:08;;;;;;;2.40;0.93;;;18.60;59.20;;;;;;5072896;28;20463;-61
2022/07/15 08:43:37;;;;;;;2.00;0.80;;;19.00;57.60;;;;;;5072769;28;20447;-61
2022/07/15 08:46:07;;;;;;;2.70;0.90;;;19.50;55.80;;;;;;5073816;28;20462;-62
2022/07/15 08:48:37;;;;;;;1.50;0.60;;;19.60;54.10;;;;;;5072957;28;20493;-61
2022/07/15 08:51:07;;;;;;;2.30;1.00;;;19.50;53.80;;;;;;5072800;28;20558;-62
2022/07/15 08:53:34;;;;;;;1.67;0.80;;;19.20;53.60;;;;;;5073224;28;20961;-61
2022/07/15 08:56:02;;;;;;;3.93;1.00;;;19.00;53.60;;;;;;5075840;28;20572;-62
2022/07/15 08:58:29;;;;;;;2.60;0.87;;;18.80;53.60;;;;;;5077188;28;20462;-61
2022/07/15 09:00:58;;;;;;;2.40;1.00;;;18.60;54.00;;;;;;5077380;28;20967;-61
2022/07/15 09:03:25;;;;;;;2.50;1.43;;;18.50;54.30;;;;;;5079497;28;20839;-61
2022/07/15 09:05:53;;;;;;;1.50;0.90;;;18.50;54.40;;;;;;5078452;28;20858;-61
2022/07/15 09:08:20;;;;;;;3.27;1.30;;;18.60;54.40;;;;;;5077853;28;20500;-61
2022/07/15 09:10:51;;;;;;;5.37;1.10;;;18.70;54.20;;;;;;5079091;28;20490;-61
2022/07/15 09:13:31;;;;;;;1.53;0.80;;;18.80;54.30;;;;;;5079469;28;20915;-61
2022/07/15 09:16:01;;;;;;;3.27;1.10;;;18.90;54.20;;;;;;5079464;28;20431;-61
2022/07/15 09:18:30;;;;;;;2.07;0.80;;;19.00;54.10;;;;;;5078101;28;20431;-61
2022/07/15 09:20:58;;;;;;;2.37;0.83;;;19.10;53.70;;;;;;5078454;28;20550;-61
2022/07/15 09:23:30;;;;;;;2.70;1.10;;;19.00;53.60;;;;;;5077842;28;20478;-61
2022/07/15 09:26:00;;;;;;;1.83;0.90;;;18.80;53.60;;;;;;5078293;28;20434;-62
2022/07/15 09:28:38;;;;;;;2.80;0.93;;;18.60;54.10;;;;;;5079386;28;20501;-60
2022/07/15 09:33:58;;;;;;;2.10;0.90;;;18.30;54.90;;;;;;5077803;28;20402;-60
2022/07/15 09:36:28;;;;;;;2.10;0.80;;;18.30;55.30;;;;;;5076769;28;20911;-60
2022/07/15 09:38:57;;;;;;;4.00;1.00;;;18.30;55.40;;;;;;5075978;28;21025;-62
2022/07/15 09:41:30;;;;;;;2.83;1.47;;;18.40;55.20;;;;;;5075466;28;20505;-61
2022/07/15 09:44:03;;;;;;;2.83;1.00;;;18.50;55.00;;;;;;5075647;28;20435;-61
2022/07/15 09:46:43;;;;;;;5.37;0.93;;;18.60;55.00;;;;;;5075764;28;20899;-60
2022/07/15 09:49:12;;;;;;;2.70;0.80;;;18.70;54.80;;;;;;5075928;28;20427;-62
2022/07/15 09:51:50;;;;;;;4.53;0.93;;;18.80;54.40;;;;;;5075765;28;20479;-61
2022/07/15 09:54:18;;;;;;;2.10;1.10;;;18.80;54.10;;;;;;5075308;28;20442;-61
2022/07/15 09:56:46;;;;;;;3.17;1.00;;;18.90;53.90;;;;;;5075375;28;20879;-61
2022/07/15 09:59:14;;;;;;;2.17;0.90;;;19.00;53.60;;;;;;5080378;28;20446;-63
2022/07/15 10:01:47;;;;;;;2.83;1.20;;;19.00;53.30;;;;;;5096872;28;20513;-61
2022/07/15 10:04:16;;;;;;;2.60;0.80;;;18.90;53.10;;;;;;5089099;28;20471;-62
2022/07/15 10:06:45;;;;;;;1.70;1.00;;;18.70;53.80;;;;;;5075092;28;20443;-61
2022/07/15 10:09:12;;;;;;;2.03;0.97;;;18.50;54.40;;;;;;5074711;28;20498;-61
2022/07/15 10:11:43;;;;;;;1.67;1.30;;;18.30;54.60;;;;;;5074994;28;20482;-61
2022/07/15 10:14:38;;;;;;;2.23;1.27;;;18.30;55.00;;;;;;5075462;28;20858;-61
2022/07/15 10:17:38;;;;;;;4.33;1.20;;;18.30;55.20;;;;;;5074970;28;20453;-62
2022/07/15 10:20:44;;;;;;;4.10;1.00;;;18.40;55.10;;;;;;5064349;28;20467;-62
2022/07/15 10:23:22;;;;;;;3.10;1.13;;;18.50;55.00;;;;;;5063101;28;20796;-62
2022/07/15 10:26:04;;;;;;;2.67;1.17;;;18.40;54.90;;;;;;5078140;28;20443;-62
2022/07/15 10:28:46;;;;;;;2.73;1.30;;;18.40;55.00;;;;;;5094644;28;20438;-61
2022/07/15 10:31:18;;;;;;;6.60;1.20;;;18.40;55.20;;;;;;5093359;28;20470;-63
2022/07/15 10:34:19;;;;;;;3.83;1.40;;;18.40;55.50;;;;;;5086080;28;20470;-60
2022/07/15 10:37:03;;;;;;;2.57;1.00;;;18.50;55.40;;;;;;5080424;28;20492;-61
2022/07/15 10:39:57;;;;;;;2.73;1.10;;;18.80;55.10;;;;;;5075094;28;20452;-62
2022/07/15 10:42:25;;;;;;;2.03;1.20;;;19.00;54.70;;;;;;5079248;28;20443;-61
2022/07/15 10:45:07;;;;;;;2.13;1.00;;;19.20;54.30;;;;;;5081128;28;20492;-60
2022/07/15 10:47:35;;;;;;;3.77;1.20;;;19.40;53.90;;;;;;5080333;28;20442;-60
2022/07/15 10:50:37;;;;;;;5.97;1.13;;;19.60;53.50;;;;;;5077758;28;20531;-61
2022/07/15 10:53:21;;;;;;;3.33;0.90;;;19.90;53.20;;;;;;5092893;28;20434;-61
2022/07/15 10:55:48;;;;;;;1.80;1.20;;;20.40;52.60;;;;;;5075552;28;20431;-63
2022/07/15 10:58:17;;;;;;;2.53;1.20;;;20.70;51.60;;;;;;5075790;28;20893;-62
2022/07/15 11:00:46;;;;;;;3.40;1.50;;;20.80;51.00;;;;;;5076355;28;20499;-62
2022/07/15 11:03:16;;;;;;;2.03;1.37;;;20.90;50.70;;;;;;5075589;28;20445;-61
2022/07/15 11:06:04;;;;;;;2.87;1.37;;;21.00;50.30;;;;;;5081333;28;20431;-62
2022/07/15 11:08:56;;;;;;;2.30;0.93;;;21.10;50.20;;;;;;5080137;28;20460;-62
2022/07/15 11:11:51;;;;;;;1.60;0.70;;;21.20;50.00;;;;;;5089241;28;20484;-62
2022/07/15 11:14:47;;;;;;;2.37;1.03;;;21.20;49.70;;;;;;5076041;28;20485;-61
2022/07/15 11:17:18;;;;;;;1.73;0.80;;;21.30;48.90;;;;;;5053457;28;20438;-63
2022/07/15 11:19:48;;;;;;;1.17;0.73;;;21.40;47.90;;;;;;5054343;28;20472;-62
2022/07/15 11:22:20;;;;;;;1.83;0.87;;;21.20;47.80;;;;;;5053781;28;20997;-62
2022/07/15 11:24:48;;;;;;;2.63;1.00;;;21.10;47.70;;;;;;5053941;28;20512;-61
2022/07/15 11:27:16;;;;;;;3.60;1.13;;;20.90;48.00;;;;;;5053581;28;20568;-62
2022/07/15 11:29:49;;;;;;;2.67;0.93;;;20.80;48.40;;;;;;5054065;28;20493;-62
2022/07/15 11:32:18;;;;;;;2.20;0.93;;;20.80;48.60;;;;;;5053941;28;20446;-62
2022/07/15 11:34:47;;;;;;;3.20;1.40;;;20.80;48.60;;;;;;5053268;28;20484;-62
2022/07/15 11:37:18;;;;;;;2.40;1.40;;;20.70;48.70;;;;;;5053444;28;20451;-62
2022/07/15 11:39:48;;;;;;;3.57;1.70;;;20.70;48.90;;;;;;5053677;28;20544;-63
2022/07/15 11:45:05;;;;;;;3.87;0.90;;;21.10;48.60;;;;;;5053324;28;20898;-62
2022/07/15 11:47:33;;;;;;;2.03;0.97;;;21.50;48.30;;;;;;5053221;28;20892;-64
2022/07/15 11:50:01;;;;;;;4.00;1.07;;;21.60;48.00;;;;;;5053557;28;20471;-62
2022/07/15 11:52:28;;;;;;;2.60;1.10;;;21.60;47.70;;;;;;5053609;28;20444;-62
2022/07/15 11:54:57;;;;;;;3.23;0.97;;;21.70;47.70;;;;;;5053741;28;20452;-62
2022/07/15 11:57:25;;;;;;;1.73;0.70;;;22.10;47.30;;;;;;5053128;28;20974;-62
2022/07/15 11:59:57;;;;;;;2.43;1.00;;;22.40;46.70;;;;;;5053139;28;20472;-61
2022/07/15 12:02:26;;;;;;;2.20;1.00;;;22.70;46.00;;;;;;5053651;28;20436;-63
2022/07/15 12:05:02;;;;;;;2.30;1.20;;;23.10;45.40;;;;;;5053588;28;20483;-62
2022/07/15 12:07:43;;;;;;;2.33;0.80;;;23.10;45.00;;;;;;5053646;28;20464;-62
2022/07/15 12:10:13;;;;;;;3.73;1.30;;;22.90;45.00;;;;;;5052819;28;20456;-61
2022/07/15 12:12:53;;;;;;;1.30;0.70;;;22.60;44.90;;;;;;5053243;28;20433;-62
2022/07/15 12:15:22;;;;;;;3.27;0.77;;;22.20;45.20;;;;;;5053417;28;20431;-62
2022/07/15 12:17:49;;;;;;;2.00;0.93;;;21.90;46.30;;;;;;5053361;28;20571;-60
2022/07/15 12:20:17;;;;;;;3.97;1.00;;;21.50;46.40;;;;;;5052800;28;20467;-63
2022/07/15 12:23:02;;;;;;;2.40;1.03;;;21.20;46.90;;;;;;5052924;28;20942;-63
2022/07/15 12:25:31;;;;;;;2.57;1.20;;;21.00;47.40;;;;;;5053322;28;20833;-63
2022/07/15 12:27:58;;;;;;;1.90;1.00;;;21.00;47.70;;;;;;5052983;28;20509;-62
2022/07/15 12:30:33;;;;;;;6.33;1.00;;;21.00;47.80;;;;;;5054791;28;20462;-63
2022/07/15 12:33:17;;;;;;;1.83;1.30;;;20.90;47.70;;;;;;5057206;28;20474;-62
2022/07/15 12:35:45;;;;;;;3.40;1.80;;;20.70;47.60;;;;;;5057300;28;20450;-61
2022/07/15 12:38:27;;;;;;;4.77;1.50;;;20.70;47.70;;;;;;5057854;28;20498;-63
2022/07/15 12:41:04;;;;;;;1.60;1.07;;;20.80;47.60;;;;;;5057040;28;20795;-62
2022/07/15 12:43:48;;;;;;;5.57;1.10;;;20.90;47.50;;;;;;5057024;28;20862;-62
2022/07/15 12:46:16;;;;;;;1.60;1.30;;;21.10;47.20;;;;;;5057603;28;20956;-62
2022/07/15 12:48:46;;;;;;;1.57;1.30;;;21.20;47.10;;;;;;5056543;28;20453;-63
2022/07/15 12:51:15;;;;;;;6.03;1.37;;;21.20;47.20;;;;;;5055960;28;20491;-62
2022/07/15 12:53:43;;;;;;;1.73;0.93;;;21.20;47.20;;;;;;5056316;28;20460;-62
2022/07/15 12:56:12;;;;;;;2.43;0.80;;;21.00;47.40;;;;;;5056031;28;20454;-61
2022/07/15 12:58:40;;;;;;;1.53;0.60;;;20.80;47.80;;;;;;5056297;28;20812;-62
2022/07/15 13:01:10;;;;;;;4.13;1.33;;;20.60;47.90;;;;;;5056336;28;20510;-61
2022/07/15 13:03:38;;;;;;;1.30;1.13;;;20.50;48.50;;;;;;5056453;28;20437;-62
2022/07/15 13:06:07;;;;;;;2.83;1.00;;;20.40;48.00;;;;;;5057085;28;20450;-62
2022/07/15 13:08:35;;;;;;;2.27;1.30;;;20.40;48.60;;;;;;5055772;28;20518;-62
2022/07/15 13:11:05;;;;;;;3.33;0.90;;;20.50;48.10;;;;;;5055853;28;20533;-62
2022/07/15 13:13:35;;;;;;;1.70;0.87;;;20.60;48.10;;;;;;5056195;28;20482;-61
2022/07/15 13:16:05;;;;;;;3.77;1.40;;;20.60;48.20;;;;;;5055970;28;20492;-62